sensor_id;sensor_type;location;lat;lon;timestamp;pressure;altitude;pressure_sealevel;temperature;humidity
79150;BME280;68563;45.644;13.782;2024-03-25T00:02:08;100199.38;;;10.85;46.55
79150;BME280;68563;45.644;13.782;2024-03-25T00:04:34;100195.13;;;10.82;46.27
79150;BME280;68563;45.644;13.782;2024-03-25T00:06:59;100192.63;;;10.79;46.19
79150;BME280;68563;45.644;13.782;2024-03-25T00:09:26;100202.94;;;10.81;46.23
79150;BME280;68563;45.644;13.782;2024-03-25T00:11:51;100195.19;;;10.79;45.76
79150;BME280;68563;45.644;13.782;2024-03-25T00:14:20;100204.63;;;10.82;45.59
79150;BME280;68563;45.644;13.782;2024-03-25T00:16:46;100205.34;;;10.89;45.22
79150;BME280;68563;45.644;13.782;2024-03-25T00:19:11;100198.50;;;10.86;44.49
79150;BME280;68563;45.644;13.782;2024-03-25T00:21:37;100195.91;;;10.86;44.31
79150;BME280;68563;45.644;13.782;2024-03-25T00:24:02;100196.81;;;10.83;45.35
79150;BME280;68563;45.644;13.782;2024-03-25T00:26:28;100198.53;;;10.84;45.40
79150;BME280;68563;45.644;13.782;2024-03-25T00:28:53;100196.72;;;10.88;45.14
79150;BME280;68563;45.644;13.782;2024-03-25T00:31:18;100200.94;;;10.92;45.41
79150;BME280;68563;45.644;13.782;2024-03-25T00:33:45;100199.19;;;10.94;45.56
79150;BME280;68563;45.644;13.782;2024-03-25T00:36:10;100200.06;;;10.93;45.74
79150;BME280;68563;45.644;13.782;2024-03-25T00:38:36;100194.28;;;10.82;45.95
79150;BME280;68563;45.644;13.782;2024-03-25T00:41:01;100189.84;;;10.87;45.03
79150;BME280;68563;45.644;13.782;2024-03-25T00:43:26;100180.50;;;10.80;44.70
79150;BME280;68563;45.644;13.782;2024-03-25T00:45:52;100185.75;;;10.77;45.44
79150;BME280;68563;45.644;13.782;2024-03-25T00:48:17;100184.84;;;10.79;44.27
79150;BME280;68563;45.644;13.782;2024-03-25T00:50:43;100187.47;;;10.78;43.82
79150;BME280;68563;45.644;13.782;2024-03-25T00:53:08;100187.44;;;10.79;44.38
79150;BME280;68563;45.644;13.782;2024-03-25T00:55:34;100184.75;;;10.84;44.96
79150;BME280;68563;45.644;13.782;2024-03-25T00:58:01;100169.44;;;10.72;45.09
79150;BME280;68563;45.644;13.782;2024-03-25T01:00:27;100176.34;;;10.73;44.71
79150;BME280;68563;45.644;13.782;2024-03-25T01:02:52;100184.00;;;10.77;44.56
79150;BME280;68563;45.644;13.782;2024-03-25T01:05:17;100162.59;;;10.71;43.51
79150;BME280;68563;45.644;13.782;2024-03-25T01:07:43;100174.75;;;10.65;44.28
79150;BME280;68563;45.644;13.782;2024-03-25T01:10:09;100184.19;;;10.69;44.82
79150;BME280;68563;45.644;13.782;2024-03-25T01:12:34;100180.81;;;10.64;44.01
79150;BME280;68563;45.644;13.782;2024-03-25T01:15:00;100174.84;;;10.62;44.55
79150;BME280;68563;45.644;13.782;2024-03-25T01:17:27;100174.06;;;10.59;44.75
79150;BME280;68563;45.644;13.782;2024-03-25T01:19:52;100173.97;;;10.63;44.59
79150;BME280;68563;45.644;13.782;2024-03-25T01:22:18;100174.81;;;10.64;45.04
79150;BME280;68563;45.644;13.782;2024-03-25T01:24:43;100176.66;;;10.59;45.56
79150;BME280;68563;45.644;13.782;2024-03-25T01:27:09;100172.31;;;10.59;45.21
79150;BME280;68563;45.644;13.782;2024-03-25T01:29:34;100185.16;;;10.64;44.95
79150;BME280;68563;45.644;13.782;2024-03-25T01:32:00;100184.31;;;10.63;44.61
79150;BME280;68563;45.644;13.782;2024-03-25T01:34:26;100186.09;;;10.61;44.32
79150;BME280;68563;45.644;13.782;2024-03-25T01:36:51;100182.75;;;10.56;44.82
79150;BME280;68563;45.644;13.782;2024-03-25T01:39:17;100180.22;;;10.53;44.82
79150;BME280;68563;45.644;13.782;2024-03-25T01:41:43;100186.38;;;10.46;45.45
79150;BME280;68563;45.644;13.782;2024-03-25T01:44:09;100186.38;;;10.46;45.90
79150;BME280;68563;45.644;13.782;2024-03-25T01:46:35;100178.75;;;10.40;46.19
79150;BME280;68563;45.644;13.782;2024-03-25T01:49:01;100181.34;;;10.40;46.12
79150;BME280;68563;45.644;13.782;2024-03-25T01:51:26;100173.63;;;10.38;46.17
79150;BME280;68563;45.644;13.782;2024-03-25T01:53:53;100186.47;;;10.41;45.92
79150;BME280;68563;45.644;13.782;2024-03-25T01:56:21;100189.94;;;10.42;46.24
79150;BME280;68563;45.644;13.782;2024-03-25T01:58:47;100184.94;;;10.31;45.97
79150;BME280;68563;45.644;13.782;2024-03-25T02:01:13;100193.44;;;10.37;45.91
79150;BME280;68563;45.644;13.782;2024-03-25T02:03:41;100185.75;;;10.33;45.62
79150;BME280;68563;45.644;13.782;2024-03-25T02:06:12;100191.00;;;10.30;45.78
79150;BME280;68563;45.644;13.782;2024-03-25T02:08:40;100188.31;;;10.34;46.19
79150;BME280;68563;45.644;13.782;2024-03-25T02:11:06;100189.19;;;10.33;45.68
79150;BME280;68563;45.644;13.782;2024-03-25T02:13:32;100199.00;;;10.16;45.63
79150;BME280;68563;45.644;13.782;2024-03-25T02:15:57;100195.06;;;9.96;46.35
79150;BME280;68563;45.644;13.782;2024-03-25T02:18:23;100196.81;;;9.96;46.45
79150;BME280;68563;45.644;13.782;2024-03-25T02:20:48;100198.56;;;9.94;46.84
79150;BME280;68563;45.644;13.782;2024-03-25T02:23:14;100189.81;;;10.01;46.88
79150;BME280;68563;45.644;13.782;2024-03-25T02:25:42;100200.91;;;10.06;46.74
79150;BME280;68563;45.644;13.782;2024-03-25T02:28:07;100197.59;;;9.99;47.11
79150;BME280;68563;45.644;13.782;2024-03-25T02:30:33;100202.53;;;10.12;47.08
79150;BME280;68563;45.644;13.782;2024-03-25T02:32:58;100197.31;;;10.15;46.96
79150;BME280;68563;45.644;13.782;2024-03-25T02:35:25;100200.72;;;10.17;46.66
79150;BME280;68563;45.644;13.782;2024-03-25T02:37:52;100199.91;;;10.15;46.96
79150;BME280;68563;45.644;13.782;2024-03-25T02:40:18;100197.47;;;10.05;46.09
79150;BME280;68563;45.644;13.782;2024-03-25T02:42:45;100196.84;;;9.93;46.17
79150;BME280;68563;45.644;13.782;2024-03-25T02:45:10;100201.19;;;9.92;46.65
79150;BME280;68563;45.644;13.782;2024-03-25T02:47:36;100195.13;;;9.93;46.42
79150;BME280;68563;45.644;13.782;2024-03-25T02:50:01;100197.78;;;9.88;46.63
79150;BME280;68563;45.644;13.782;2024-03-25T02:52:27;100197.03;;;9.82;46.80
79150;BME280;68563;45.644;13.782;2024-03-25T02:54:52;100204.72;;;9.86;47.14
79150;BME280;68563;45.644;13.782;2024-03-25T02:57:19;100206.38;;;9.90;47.12
79150;BME280;68563;45.644;13.782;2024-03-25T02:59:45;100203.75;;;9.92;46.86
79150;BME280;68563;45.644;13.782;2024-03-25T03:02:10;100194.34;;;9.88;45.48
79150;BME280;68563;45.644;13.782;2024-03-25T03:04:35;100195.31;;;9.82;45.13
79150;BME280;68563;45.644;13.782;2024-03-25T03:07:01;100194.66;;;9.69;45.53
79150;BME280;68563;45.644;13.782;2024-03-25T03:09:26;100198.88;;;9.75;45.38
79150;BME280;68563;45.644;13.782;2024-03-25T03:11:51;100203.38;;;9.64;45.72
79150;BME280;68563;45.644;13.782;2024-03-25T03:14:17;100200.09;;;9.52;45.92
79150;BME280;68563;45.644;13.782;2024-03-25T03:16:42;100201.06;;;9.47;46.42
79150;BME280;68563;45.644;13.782;2024-03-25T03:19:08;100205.50;;;9.38;46.52
79150;BME280;68563;45.644;13.782;2024-03-25T03:21:33;100205.38;;;9.46;46.29
79150;BME280;68563;45.644;13.782;2024-03-25T03:23:59;100211.22;;;9.57;46.36
79150;BME280;68563;45.644;13.782;2024-03-25T03:26:24;100212.38;;;9.39;46.01
79150;BME280;68563;45.644;13.782;2024-03-25T03:28:55;100207.19;;;9.39;45.92
79150;BME280;68563;45.644;13.782;2024-03-25T03:31:21;100208.81;;;9.47;45.86
79150;BME280;68563;45.644;13.782;2024-03-25T03:33:47;100214.06;;;9.40;45.79
79150;BME280;68563;45.644;13.782;2024-03-25T03:36:15;100208.03;;;9.41;45.49
79150;BME280;68563;45.644;13.782;2024-03-25T03:38:40;100209.78;;;9.41;45.96
79150;BME280;68563;45.644;13.782;2024-03-25T03:41:06;100210.69;;;9.38;46.02
79150;BME280;68563;45.644;13.782;2024-03-25T03:43:32;100215.88;;;9.35;45.94
79150;BME280;68563;45.644;13.782;2024-03-25T03:45:57;100219.34;;;9.34;46.00
79150;BME280;68563;45.644;13.782;2024-03-25T03:48:22;100218.44;;;9.37;45.70
79150;BME280;68563;45.644;13.782;2024-03-25T03:50:48;100216.81;;;9.31;45.79
79150;BME280;68563;45.644;13.782;2024-03-25T03:53:13;100222.78;;;9.33;45.83
79150;BME280;68563;45.644;13.782;2024-03-25T03:55:38;100216.81;;;9.30;46.18
79150;BME280;68563;45.644;13.782;2024-03-25T03:58:04;100214.22;;;9.31;46.68
79150;BME280;68563;45.644;13.782;2024-03-25T04:00:33;100230.34;;;9.47;46.59
79150;BME280;68563;45.644;13.782;2024-03-25T04:03:00;100237.25;;;9.48;46.43
79150;BME280;68563;45.644;13.782;2024-03-25T04:05:28;100243.28;;;9.47;46.65
79150;BME280;68563;45.644;13.782;2024-03-25T04:07:54;100248.31;;;9.55;46.21
79150;BME280;68563;45.644;13.782;2024-03-25T04:10:20;100251.78;;;9.54;44.68
79150;BME280;68563;45.644;13.782;2024-03-25T04:12:45;100248.19;;;9.64;44.35
79150;BME280;68563;45.644;13.782;2024-03-25T04:15:11;100256.94;;;9.55;44.26
79150;BME280;68563;45.644;13.782;2024-03-25T04:17:45;100256.97;;;9.52;44.39
79150;BME280;68563;45.644;13.782;2024-03-25T04:20:12;100265.56;;;9.53;44.48
79150;BME280;68563;45.644;13.782;2024-03-25T04:22:44;100270.88;;;9.45;44.96
79150;BME280;68563;45.644;13.782;2024-03-25T04:25:11;100261.44;;;9.42;45.13
79150;BME280;68563;45.644;13.782;2024-03-25T04:27:43;100277.78;;;9.43;45.32
79150;BME280;68563;45.644;13.782;2024-03-25T04:30:10;100269.28;;;9.36;46.08
79150;BME280;68563;45.644;13.782;2024-03-25T04:32:37;100276.16;;;9.37;45.75
79150;BME280;68563;45.644;13.782;2024-03-25T04:35:03;100271.81;;;9.39;46.01
79150;BME280;68563;45.644;13.782;2024-03-25T04:37:30;100268.34;;;9.42;46.33
79150;BME280;68563;45.644;13.782;2024-03-25T04:39:56;100274.31;;;9.44;46.37
79150;BME280;68563;45.644;13.782;2024-03-25T04:42:22;100274.38;;;9.39;46.04
79150;BME280;68563;45.644;13.782;2024-03-25T04:44:48;100276.97;;;9.41;46.62
79150;BME280;68563;45.644;13.782;2024-03-25T04:47:13;100284.72;;;9.39;46.72
79150;BME280;68563;45.644;13.782;2024-03-25T04:49:40;100278.81;;;9.33;46.71
79150;BME280;68563;45.644;13.782;2024-03-25T04:52:06;100278.81;;;9.33;46.95
79150;BME280;68563;45.644;13.782;2024-03-25T04:54:31;100281.31;;;9.39;46.30
79150;BME280;68563;45.644;13.782;2024-03-25T04:56:57;100285.53;;;9.43;46.47
79150;BME280;68563;45.644;13.782;2024-03-25T04:59:22;100286.50;;;9.37;46.42
79150;BME280;68563;45.644;13.782;2024-03-25T05:01:48;100293.41;;;9.35;46.09
79150;BME280;68563;45.644;13.782;2024-03-25T05:04:13;100297.00;;;9.25;45.85
79150;BME280;68563;45.644;13.782;2024-03-25T05:06:39;100305.63;;;9.24;46.09
79150;BME280;68563;45.644;13.782;2024-03-25T05:09:04;100303.13;;;9.16;46.34
79150;BME280;68563;45.644;13.782;2024-03-25T05:11:32;100309.16;;;9.18;46.55
79150;BME280;68563;45.644;13.782;2024-03-25T05:13:57;100308.22;;;9.24;46.88
79150;BME280;68563;45.644;13.782;2024-03-25T05:16:23;100317.75;;;9.20;46.74
79150;BME280;68563;45.644;13.782;2024-03-25T05:18:48;100307.38;;;9.22;46.77
79150;BME280;68563;45.644;13.782;2024-03-25T05:21:13;100316.91;;;9.17;46.53
79150;BME280;68563;45.644;13.782;2024-03-25T05:23:39;100314.34;;;9.17;46.71
79150;BME280;68563;45.644;13.782;2024-03-25T05:26:05;100320.41;;;9.14;46.67
79150;BME280;68563;45.644;13.782;2024-03-25T05:28:30;100316.03;;;9.16;46.52
79150;BME280;68563;45.644;13.782;2024-03-25T05:30:56;100320.25;;;9.25;46.77
79150;BME280;68563;45.644;13.782;2024-03-25T05:33:21;100321.97;;;9.24;46.51
79150;BME280;68563;45.644;13.782;2024-03-25T05:35:46;100315.16;;;9.20;46.49
79150;BME280;68563;45.644;13.782;2024-03-25T05:38:12;100318.78;;;9.07;47.03
79150;BME280;68563;45.644;13.782;2024-03-25T05:40:37;100317.81;;;9.14;46.97
79150;BME280;68563;45.644;13.782;2024-03-25T05:43:02;100331.56;;;9.18;46.97
79150;BME280;68563;45.644;13.782;2024-03-25T05:45:28;100336.72;;;9.16;47.05
79150;BME280;68563;45.644;13.782;2024-03-25T05:47:53;100326.38;;;9.18;46.83
79150;BME280;68563;45.644;13.782;2024-03-25T05:50:19;100319.50;;;9.15;46.61
79150;BME280;68563;45.644;13.782;2024-03-25T05:52:44;100336.81;;;9.08;46.59
79150;BME280;68563;45.644;13.782;2024-03-25T05:55:09;100336.81;;;9.08;46.68
79150;BME280;68563;45.644;13.782;2024-03-25T05:57:36;100324.59;;;9.23;46.30
79150;BME280;68563;45.644;13.782;2024-03-25T06:00:02;100333.69;;;9.50;45.97
79150;BME280;68563;45.644;13.782;2024-03-25T06:02:28;100339.53;;;9.63;45.28
79150;BME280;68563;45.644;13.782;2024-03-25T06:04:53;100332.44;;;9.78;44.59
79150;BME280;68563;45.644;13.782;2024-03-25T06:07:19;100334.63;;;10.02;44.56
79150;BME280;68563;45.644;13.782;2024-03-25T06:09:44;100334.19;;;10.32;44.02
79150;BME280;68563;45.644;13.782;2024-03-25T06:12:09;100334.59;;;10.59;43.27
79150;BME280;68563;45.644;13.782;2024-03-25T06:14:35;100341.75;;;10.91;43.29
79150;BME280;68563;45.644;13.782;2024-03-25T06:17:00;100336.03;;;11.19;42.84
79150;BME280;68563;45.644;13.782;2024-03-25T06:19:26;100339.28;;;11.27;41.99
79150;BME280;68563;45.644;13.782;2024-03-25T06:21:51;100329.47;;;11.43;42.03
79150;BME280;68563;45.644;13.782;2024-03-25T06:24:16;100342.84;;;11.62;41.76
79150;BME280;68563;45.644;13.782;2024-03-25T06:26:42;100338.28;;;11.74;41.60
79150;BME280;68563;45.644;13.782;2024-03-25T06:29:07;100338.88;;;11.85;41.19
79150;BME280;68563;45.644;13.782;2024-03-25T06:31:33;100336.88;;;11.98;41.69
79150;BME280;68563;45.644;13.782;2024-03-25T06:34:16;100334.81;;;12.11;41.07
79150;BME280;68563;45.644;13.782;2024-03-25T06:36:49;100340.72;;;12.18;40.86
79150;BME280;68563;45.644;13.782;2024-03-25T06:39:15;100341.34;;;12.27;40.45
79150;BME280;68563;45.644;13.782;2024-03-25T06:41:40;100336.81;;;12.36;40.49
79150;BME280;68563;45.644;13.782;2024-03-25T06:44:06;100338.19;;;12.49;40.22
79150;BME280;68563;45.644;13.782;2024-03-25T06:46:32;100343.22;;;12.55;40.11
79150;BME280;68563;45.644;13.782;2024-03-25T06:48:58;100343.72;;;12.70;39.96
79150;BME280;68563;45.644;13.782;2024-03-25T06:51:23;100335.22;;;12.65;39.41
79150;BME280;68563;45.644;13.782;2024-03-25T06:53:49;100346.31;;;12.70;39.65
79150;BME280;68563;45.644;13.782;2024-03-25T06:56:14;100351.19;;;12.82;39.90
79150;BME280;68563;45.644;13.782;2024-03-25T06:58:40;100347.28;;;12.99;39.95
79150;BME280;68563;45.644;13.782;2024-03-25T07:01:07;100345.06;;;13.15;39.84
79150;BME280;68563;45.644;13.782;2024-03-25T07:03:34;100354.28;;;13.27;40.14
79150;BME280;68563;45.644;13.782;2024-03-25T07:06:00;100351.44;;;13.34;40.54
79150;BME280;68563;45.644;13.782;2024-03-25T07:08:28;100349.56;;;13.41;40.47
79150;BME280;68563;45.644;13.782;2024-03-25T07:10:55;100348.41;;;13.50;40.61
79150;BME280;68563;45.644;13.782;2024-03-25T07:13:20;100355.97;;;13.59;40.44
79150;BME280;68563;45.644;13.782;2024-03-25T07:15:46;100357.41;;;13.68;40.17
79150;BME280;68563;45.644;13.782;2024-03-25T07:18:11;100359.56;;;13.82;40.36
79150;BME280;68563;45.644;13.782;2024-03-25T07:20:39;100360.34;;;13.85;39.25
79150;BME280;68563;45.644;13.782;2024-03-25T07:23:04;100353.41;;;13.86;38.54
79150;BME280;68563;45.644;13.782;2024-03-25T07:25:30;100344.81;;;13.82;38.36
79150;BME280;68563;45.644;13.782;2024-03-25T07:27:55;100351.47;;;13.91;38.43
79150;BME280;68563;45.644;13.782;2024-03-25T07:30:21;100356.69;;;13.91;37.68
79150;BME280;68563;45.644;13.782;2024-03-25T07:32:57;100355.66;;;13.97;37.94
79150;BME280;68563;45.644;13.782;2024-03-25T07:35:22;100351.34;;;13.96;37.49
79150;BME280;68563;45.644;13.782;2024-03-25T07:37:48;100359.78;;;14.02;36.87
79150;BME280;68563;45.644;13.782;2024-03-25T07:40:20;100358.47;;;14.17;37.42
79150;BME280;68563;45.644;13.782;2024-03-25T07:42:46;100358.25;;;14.24;36.41
79150;BME280;68563;45.644;13.782;2024-03-25T07:45:12;100361.59;;;14.27;36.47
79150;BME280;68563;45.644;13.782;2024-03-25T07:47:37;100361.25;;;14.38;36.65
79150;BME280;68563;45.644;13.782;2024-03-25T07:50:03;100359.28;;;14.45;36.16
79150;BME280;68563;45.644;13.782;2024-03-25T07:52:28;100358.00;;;14.57;36.11
79150;BME280;68563;45.644;13.782;2024-03-25T07:54:55;100351.16;;;14.54;36.17
79150;BME280;68563;45.644;13.782;2024-03-25T07:57:21;100354.38;;;14.61;35.65
79150;BME280;68563;45.644;13.782;2024-03-25T07:59:47;100346.56;;;14.61;36.13
79150;BME280;68563;45.644;13.782;2024-03-25T08:02:12;100350.50;;;14.74;36.38
79150;BME280;68563;45.644;13.782;2024-03-25T08:04:37;100350.50;;;14.74;35.80
79150;BME280;68563;45.644;13.782;2024-03-25T08:07:03;100348.41;;;14.84;36.05
79150;BME280;68563;45.644;13.782;2024-03-25T08:09:29;100348.13;;;14.92;36.36
79150;BME280;68563;45.644;13.782;2024-03-25T08:11:54;100346.84;;;15.04;35.80
79150;BME280;68563;45.644;13.782;2024-03-25T08:14:19;100345.88;;;15.06;36.12
79150;BME280;68563;45.644;13.782;2024-03-25T08:16:45;100341.56;;;15.05;35.86
79150;BME280;68563;45.644;13.782;2024-03-25T08:19:10;100349.28;;;15.08;36.27
79150;BME280;68563;45.644;13.782;2024-03-25T08:21:36;100338.78;;;15.10;36.44
79150;BME280;68563;45.644;13.782;2024-03-25T08:24:01;100347.91;;;15.22;36.95
79150;BME280;68563;45.644;13.782;2024-03-25T08:26:27;100347.69;;;15.28;37.16
79150;BME280;68563;45.644;13.782;2024-03-25T08:28:52;100351.94;;;15.30;36.71
79150;BME280;68563;45.644;13.782;2024-03-25T08:31:27;100350.13;;;15.32;36.16
79150;BME280;68563;45.644;13.782;2024-03-25T08:33:52;100347.69;;;15.28;35.58
79150;BME280;68563;45.644;13.782;2024-03-25T08:36:18;100349.25;;;15.32;35.79
79150;BME280;68563;45.644;13.782;2024-03-25T08:38:44;100347.44;;;15.34;36.33
79150;BME280;68563;45.644;13.782;2024-03-25T08:41:10;100344.91;;;15.32;35.76
79150;BME280;68563;45.644;13.782;2024-03-25T08:43:35;100351.63;;;15.38;35.41
79150;BME280;68563;45.644;13.782;2024-03-25T08:46:00;100334.41;;;15.34;35.59
79150;BME280;68563;45.644;13.782;2024-03-25T08:48:26;100339.47;;;15.37;35.59
79150;BME280;68563;45.644;13.782;2024-03-25T08:50:51;100335.31;;;15.33;35.71
79150;BME280;68563;45.644;13.782;2024-03-25T08:53:17;100355.03;;;15.40;35.86
79150;BME280;68563;45.644;13.782;2024-03-25T08:55:45;100355.03;;;15.40;35.90
79150;BME280;68563;45.644;13.782;2024-03-25T08:58:12;100360.25;;;15.40;35.63
79150;BME280;68563;45.644;13.782;2024-03-25T09:00:38;100363.25;;;15.29;34.22
79150;BME280;68563;45.644;13.782;2024-03-25T09:03:03;100369.38;;;15.28;35.27
79150;BME280;68563;45.644;13.782;2024-03-25T09:05:29;100362.66;;;15.23;35.52
79150;BME280;68563;45.644;13.782;2024-03-25T09:07:55;100361.94;;;15.19;34.82
79150;BME280;68563;45.644;13.782;2024-03-25T09:10:21;100359.31;;;15.19;34.87
79150;BME280;68563;45.644;13.782;2024-03-25T09:13:04;100363.84;;;15.14;34.97
79150;BME280;68563;45.644;13.782;2024-03-25T09:15:30;100355.16;;;15.13;35.35
79150;BME280;68563;45.644;13.782;2024-03-25T09:17:55;100345.06;;;15.04;35.54
79150;BME280;68563;45.644;13.782;2024-03-25T09:20:21;100352.88;;;15.04;36.00
79150;BME280;68563;45.644;13.782;2024-03-25T09:22:47;100350.44;;;14.99;36.68
79150;BME280;68563;45.644;13.782;2024-03-25T09:25:15;100345.41;;;14.95;36.80
79150;BME280;68563;45.644;13.782;2024-03-25T09:27:45;100348.41;;;14.84;36.95
79150;BME280;68563;45.644;13.782;2024-03-25T09:30:10;100352.03;;;14.80;37.36
79150;BME280;68563;45.644;13.782;2024-03-25T09:32:36;100351.28;;;14.76;36.83
79150;BME280;68563;45.644;13.782;2024-03-25T09:35:02;100360.94;;;14.74;35.87
79150;BME280;68563;45.644;13.782;2024-03-25T09:37:28;100355.81;;;14.71;34.75
79150;BME280;68563;45.644;13.782;2024-03-25T09:39:54;100347.31;;;14.64;34.31
79150;BME280;68563;45.644;13.782;2024-03-25T09:42:26;100353.47;;;14.62;34.63
79150;BME280;68563;45.644;13.782;2024-03-25T09:44:54;100348.50;;;14.56;34.73
79150;BME280;68563;45.644;13.782;2024-03-25T09:47:19;100359.94;;;14.51;35.94
79150;BME280;68563;45.644;13.782;2024-03-25T09:49:45;100354.94;;;14.45;36.37
79150;BME280;68563;45.644;13.782;2024-03-25T09:52:11;100356.78;;;14.42;36.33
79150;BME280;68563;45.644;13.782;2024-03-25T09:54:37;100352.63;;;14.36;37.05
79150;BME280;68563;45.644;13.782;2024-03-25T09:57:03;100359.28;;;14.45;37.19
79150;BME280;68563;45.644;13.782;2024-03-25T09:59:29;100364.47;;;14.45;38.30
79150;BME280;68563;45.644;13.782;2024-03-25T10:01:54;100363.66;;;14.44;38.74
79150;BME280;68563;45.644;13.782;2024-03-25T10:04:20;100362.69;;;14.47;38.30
79150;BME280;68563;45.644;13.782;2024-03-25T10:06:45;100356.72;;;14.43;38.14
79150;BME280;68563;45.644;13.782;2024-03-25T10:09:11;100363.94;;;14.35;36.93
79150;BME280;68563;45.644;13.782;2024-03-25T10:11:36;100370.94;;;14.34;36.95
79150;BME280;68563;45.644;13.782;2024-03-25T10:14:02;100363.19;;;14.31;37.56
79150;BME280;68563;45.644;13.782;2024-03-25T10:16:28;100368.34;;;14.33;38.25
79150;BME280;68563;45.644;13.782;2024-03-25T10:18:53;100367.59;;;14.29;39.17
79150;BME280;68563;45.644;13.782;2024-03-25T10:21:20;100372.72;;;14.32;38.59
79150;BME280;68563;45.644;13.782;2024-03-25T10:23:46;100360.66;;;14.30;38.90
79150;BME280;68563;45.644;13.782;2024-03-25T10:26:25;100361.66;;;14.26;38.48
79150;BME280;68563;45.644;13.782;2024-03-25T10:29:02;100356.56;;;14.23;39.71
79150;BME280;68563;45.644;13.782;2024-03-25T10:31:28;100361.66;;;14.26;37.91
79150;BME280;68563;45.644;13.782;2024-03-25T10:33:53;100361.56;;;14.29;38.51
79150;BME280;68563;45.644;13.782;2024-03-25T10:36:21;100360.75;;;14.27;38.37
79150;BME280;68563;45.644;13.782;2024-03-25T10:38:48;100359.09;;;14.24;38.59
79150;BME280;68563;45.644;13.782;2024-03-25T10:41:17;100348.88;;;14.18;38.23
79150;BME280;68563;45.644;13.782;2024-03-25T10:43:46;100359.09;;;14.24;38.89
79150;BME280;68563;45.644;13.782;2024-03-25T10:46:18;100358.34;;;14.20;39.16
79150;BME280;68563;45.644;13.782;2024-03-25T10:48:48;100354.75;;;14.25;40.80
79150;BME280;68563;45.644;13.782;2024-03-25T10:51:20;100353.13;;;14.20;41.67
79150;BME280;68563;45.644;13.782;2024-03-25T10:53:48;100359.31;;;14.18;40.90
79150;BME280;68563;45.644;13.782;2024-03-25T10:56:19;100353.19;;;14.19;39.67
79150;BME280;68563;45.644;13.782;2024-03-25T10:58:47;100358.34;;;14.20;39.41
79150;BME280;68563;45.644;13.782;2024-03-25T11:01:15;100356.69;;;14.18;40.04
79150;BME280;68563;45.644;13.782;2024-03-25T11:03:42;100354.16;;;14.16;39.24
79150;BME280;68563;45.644;13.782;2024-03-25T11:06:07;100355.72;;;14.22;39.08
79150;BME280;68563;45.644;13.782;2024-03-25T11:08:33;100353.25;;;14.17;38.78
79150;BME280;68563;45.644;13.782;2024-03-25T11:11:00;100350.59;;;14.19;38.34
79150;BME280;68563;45.644;13.782;2024-03-25T11:13:27;100347.94;;;14.20;38.26
79150;BME280;68563;45.644;13.782;2024-03-25T11:15:52;100353.25;;;14.17;38.99
79150;BME280;68563;45.644;13.782;2024-03-25T11:18:21;100346.34;;;14.16;40.43
79150;BME280;68563;45.644;13.782;2024-03-25T11:21:08;100355.84;;;14.17;40.83
79150;BME280;68563;45.644;13.782;2024-03-25T11:23:41;100356.69;;;14.18;40.89
79150;BME280;68563;45.644;13.782;2024-03-25T11:26:17;100344.53;;;14.18;41.21
79150;BME280;68563;45.644;13.782;2024-03-25T11:28:43;100348.88;;;14.18;42.19
79150;BME280;68563;45.644;13.782;2024-03-25T11:31:08;100353.53;;;14.08;42.97
79150;BME280;68563;45.644;13.782;2024-03-25T11:33:39;100347.50;;;14.08;44.35
79150;BME280;68563;45.644;13.782;2024-03-25T11:36:05;100347.53;;;14.06;44.66
79150;BME280;68563;45.644;13.782;2024-03-25T11:38:31;100357.94;;;14.06;45.33
79150;BME280;68563;45.644;13.782;2024-03-25T11:40:57;100351.09;;;14.03;45.07
79150;BME280;68563;45.644;13.782;2024-03-25T11:43:23;100344.09;;;14.06;45.03
79150;BME280;68563;45.644;13.782;2024-03-25T11:45:48;100354.44;;;14.07;45.13
79150;BME280;68563;45.644;13.782;2024-03-25T11:48:17;100355.53;;;14.00;43.31
79150;BME280;68563;45.644;13.782;2024-03-25T11:50:46;100353.63;;;14.05;42.81
79150;BME280;68563;45.644;13.782;2024-03-25T11:53:13;100359.03;;;13.99;43.46
79150;BME280;68563;45.644;13.782;2024-03-25T11:55:40;100358.09;;;14.01;44.37
79150;BME280;68563;45.644;13.782;2024-03-25T11:58:06;100347.78;;;13.98;45.18
79150;BME280;68563;45.644;13.782;2024-03-25T12:00:32;100349.56;;;13.96;45.69
79150;BME280;68563;45.644;13.782;2024-03-25T12:02:58;100347.78;;;13.98;45.83
79150;BME280;68563;45.644;13.782;2024-03-25T12:05:24;100341.81;;;13.95;45.08
79150;BME280;68563;45.644;13.782;2024-03-25T12:07:50;100341.13;;;13.90;45.31
79150;BME280;68563;45.644;13.782;2024-03-25T12:10:16;100343.63;;;13.93;45.79
79150;BME280;68563;45.644;13.782;2024-03-25T12:13:00;100341.22;;;13.86;46.11
79150;BME280;68563;45.644;13.782;2024-03-25T12:15:25;100348.00;;;13.92;46.55
79150;BME280;68563;45.644;13.782;2024-03-25T12:17:52;100352.50;;;13.87;46.97
79150;BME280;68563;45.644;13.782;2024-03-25T12:20:17;100344.78;;;13.84;47.31
79150;BME280;68563;45.644;13.782;2024-03-25T12:22:43;100334.34;;;13.84;47.58
79150;BME280;68563;45.644;13.782;2024-03-25T12:25:09;100350.66;;;13.91;47.90
79150;BME280;68563;45.644;13.782;2024-03-25T12:27:36;100342.03;;;13.88;48.04
79150;BME280;68563;45.644;13.782;2024-03-25T12:30:07;100354.09;;;13.91;48.28
79150;BME280;68563;45.644;13.782;2024-03-25T12:35:16;100338.56;;;13.88;47.98
79150;BME280;68563;45.644;13.782;2024-03-25T12:37:43;100329.22;;;13.82;48.13
79150;BME280;68563;45.644;13.782;2024-03-25T12:40:11;100338.72;;;13.83;48.10
79150;BME280;68563;45.644;13.782;2024-03-25T12:42:37;100332.91;;;13.75;48.56